sensor_id;sensor_type;location;lat;lon;timestamp;temperature;humidity
20246;DHT22;10281;54.406;18.556;2023-04-25T00:01:27;12.40;99.90
20246;DHT22;10281;54.406;18.556;2023-04-25T00:03:54;12.40;99.90
20246;DHT22;10281;54.406;18.556;2023-04-25T00:06:20;12.40;99.90
20246;DHT22;10281;54.406;18.556;2023-04-25T00:08:47;12.40;99.90
20246;DHT22;10281;54.406;18.556;2023-04-25T00:11:14;12.40;99.90
20246;DHT22;10281;54.406;18.556;2023-04-25T00:13:41;12.40;99.90
20246;DHT22;10281;54.406;18.556;2023-04-25T00:16:08;12.40;99.90
20246;DHT22;10281;54.406;18.556;2023-04-25T00:18:35;12.40;99.90
20246;DHT22;10281;54.406;18.556;2023-04-25T00:21:02;12.40;99.90
20246;DHT22;10281;54.406;18.556;2023-04-25T00:23:28;12.40;99.90
20246;DHT22;10281;54.406;18.556;2023-04-25T00:25:55;12.40;99.90
20246;DHT22;10281;54.406;18.556;2023-04-25T00:28:22;12.40;99.90
20246;DHT22;10281;54.406;18.556;2023-04-25T00:30:49;12.40;99.90
20246;DHT22;10281;54.406;18.556;2023-04-25T00:33:16;12.40;99.90
20246;DHT22;10281;54.406;18.556;2023-04-25T00:35:42;12.40;99.90
20246;DHT22;10281;54.406;18.556;2023-04-25T00:38:09;12.40;99.90
20246;DHT22;10281;54.406;18.556;2023-04-25T00:40:36;12.40;99.90
20246;DHT22;10281;54.406;18.556;2023-04-25T00:43:02;12.40;99.90
20246;DHT22;10281;54.406;18.556;2023-04-25T00:45:29;12.40;99.90
20246;DHT22;10281;54.406;18.556;2023-04-25T00:47:57;12.40;99.90
20246;DHT22;10281;54.406;18.556;2023-04-25T00:50:24;12.40;99.90
20246;DHT22;10281;54.406;18.556;2023-04-25T00:52:51;12.40;99.90
20246;DHT22;10281;54.406;18.556;2023-04-25T00:55:18;12.40;99.90
20246;DHT22;10281;54.406;18.556;2023-04-25T00:57:45;12.40;99.90
20246;DHT22;10281;54.406;18.556;2023-04-25T01:00:13;12.40;99.90
20246;DHT22;10281;54.406;18.556;2023-04-25T01:02:41;12.40;99.90
20246;DHT22;10281;54.406;18.556;2023-04-25T01:05:08;12.40;99.90
20246;DHT22;10281;54.406;18.556;2023-04-25T01:07:35;12.40;99.90
20246;DHT22;10281;54.406;18.556;2023-04-25T01:10:02;12.40;99.90
20246;DHT22;10281;54.406;18.556;2023-04-25T01:12:29;12.40;99.90
20246;DHT22;10281;54.406;18.556;2023-04-25T01:14:56;12.40;99.90
20246;DHT22;10281;54.406;18.556;2023-04-25T01:17:22;12.40;99.90
20246;DHT22;10281;54.406;18.556;2023-04-25T01:19:50;12.40;99.90
20246;DHT22;10281;54.406;18.556;2023-04-25T01:22:17;12.40;99.90
20246;DHT22;10281;54.406;18.556;2023-04-25T01:24:44;12.40;99.90
20246;DHT22;10281;54.406;18.556;2023-04-25T01:27:11;12.40;99.90
20246;DHT22;10281;54.406;18.556;2023-04-25T01:29:38;12.40;99.90
20246;DHT22;10281;54.406;18.556;2023-04-25T01:32:06;12.40;99.90
20246;DHT22;10281;54.406;18.556;2023-04-25T01:34:32;12.40;99.90
20246;DHT22;10281;54.406;18.556;2023-04-25T01:37:00;12.40;99.90
20246;DHT22;10281;54.406;18.556;2023-04-25T01:39:28;12.40;99.90
20246;DHT22;10281;54.406;18.556;2023-04-25T01:41:55;12.40;99.90
20246;DHT22;10281;54.406;18.556;2023-04-25T01:44:22;12.40;99.90
20246;DHT22;10281;54.406;18.556;2023-04-25T01:46:48;12.30;99.90
20246;DHT22;10281;54.406;18.556;2023-04-25T01:49:15;12.30;99.90
20246;DHT22;10281;54.406;18.556;2023-04-25T01:51:41;12.40;99.90
20246;DHT22;10281;54.406;18.556;2023-04-25T01:54:08;12.40;99.90
20246;DHT22;10281;54.406;18.556;2023-04-25T01:56:39;12.40;99.90
20246;DHT22;10281;54.406;18.556;2023-04-25T01:59:06;12.30;99.90
20246;DHT22;10281;54.406;18.556;2023-04-25T02:01:33;12.30;99.90
20246;DHT22;10281;54.406;18.556;2023-04-25T02:03:59;12.30;99.90
20246;DHT22;10281;54.406;18.556;2023-04-25T02:06:26;12.40;99.90
20246;DHT22;10281;54.406;18.556;2023-04-25T02:08:52;12.30;99.90
20246;DHT22;10281;54.406;18.556;2023-04-25T02:11:19;12.30;99.90
20246;DHT22;10281;54.406;18.556;2023-04-25T02:13:46;12.30;99.90
20246;DHT22;10281;54.406;18.556;2023-04-25T02:16:12;12.30;99.90
20246;DHT22;10281;54.406;18.556;2023-04-25T02:18:39;12.30;99.90
20246;DHT22;10281;54.406;18.556;2023-04-25T02:21:06;12.30;99.90
20246;DHT22;10281;54.406;18.556;2023-04-25T02:23:33;12.30;99.90
20246;DHT22;10281;54.406;18.556;2023-04-25T02:25:59;12.20;99.90
20246;DHT22;10281;54.406;18.556;2023-04-25T02:28:26;12.20;99.90
20246;DHT22;10281;54.406;18.556;2023-04-25T02:30:53;12.20;99.90
20246;DHT22;10281;54.406;18.556;2023-04-25T02:33:19;12.20;99.90
20246;DHT22;10281;54.406;18.556;2023-04-25T02:35:47;12.20;99.90
20246;DHT22;10281;54.406;18.556;2023-04-25T02:38:14;12.20;99.90
20246;DHT22;10281;54.406;18.556;2023-04-25T02:40:40;12.20;99.90
20246;DHT22;10281;54.406;18.556;2023-04-25T02:43:07;12.20;99.90
20246;DHT22;10281;54.406;18.556;2023-04-25T02:45:34;12.20;99.90
20246;DHT22;10281;54.406;18.556;2023-04-25T02:48:02;12.20;99.90
20246;DHT22;10281;54.406;18.556;2023-04-25T02:50:29;12.20;99.90
20246;DHT22;10281;54.406;18.556;2023-04-25T02:52:55;12.10;99.90
20246;DHT22;10281;54.406;18.556;2023-04-25T02:55:22;12.10;99.90
20246;DHT22;10281;54.406;18.556;2023-04-25T02:57:49;12.10;99.90
20246;DHT22;10281;54.406;18.556;2023-04-25T03:00:15;12.10;99.90
20246;DHT22;10281;54.406;18.556;2023-04-25T03:02:42;12.10;99.90
20246;DHT22;10281;54.406;18.556;2023-04-25T03:05:08;12.10;99.90
20246;DHT22;10281;54.406;18.556;2023-04-25T03:07:35;12.10;99.90
20246;DHT22;10281;54.406;18.556;2023-04-25T03:10:02;12.10;99.90
20246;DHT22;10281;54.406;18.556;2023-04-25T03:12:28;12.10;99.90
20246;DHT22;10281;54.406;18.556;2023-04-25T03:14:55;12.10;99.90
20246;DHT22;10281;54.406;18.556;2023-04-25T03:17:21;12.00;99.90
20246;DHT22;10281;54.406;18.556;2023-04-25T03:19:48;12.10;99.90
20246;DHT22;10281;54.406;18.556;2023-04-25T03:22:15;12.10;99.90
20246;DHT22;10281;54.406;18.556;2023-04-25T03:24:41;12.10;99.90
20246;DHT22;10281;54.406;18.556;2023-04-25T03:27:08;12.10;99.90
20246;DHT22;10281;54.406;18.556;2023-04-25T03:29:35;12.10;99.90
20246;DHT22;10281;54.406;18.556;2023-04-25T03:32:01;12.00;99.90
20246;DHT22;10281;54.406;18.556;2023-04-25T03:34:28;12.00;99.90
20246;DHT22;10281;54.406;18.556;2023-04-25T03:36:55;12.00;99.90
20246;DHT22;10281;54.406;18.556;2023-04-25T03:39:21;11.80;99.90
20246;DHT22;10281;54.406;18.556;2023-04-25T03:41:48;11.60;99.90
20246;DHT22;10281;54.406;18.556;2023-04-25T03:44:14;11.60;99.90
20246;DHT22;10281;54.406;18.556;2023-04-25T03:46:41;11.40;99.90
20246;DHT22;10281;54.406;18.556;2023-04-25T03:49:08;11.20;99.90
20246;DHT22;10281;54.406;18.556;2023-04-25T03:51:34;11.20;99.90
20246;DHT22;10281;54.406;18.556;2023-04-25T03:54:01;11.10;99.90
20246;DHT22;10281;54.406;18.556;2023-04-25T03:56:28;11.00;99.90
20246;DHT22;10281;54.406;18.556;2023-04-25T03:58:54;10.90;99.90
20246;DHT22;10281;54.406;18.556;2023-04-25T04:01:21;10.80;99.90
20246;DHT22;10281;54.406;18.556;2023-04-25T04:03:47;10.80;99.90
20246;DHT22;10281;54.406;18.556;2023-04-25T04:06:14;10.70;99.90
20246;DHT22;10281;54.406;18.556;2023-04-25T04:08:41;10.60;99.90
20246;DHT22;10281;54.406;18.556;2023-04-25T04:11:07;10.50;99.90
20246;DHT22;10281;54.406;18.556;2023-04-25T04:13:34;10.50;99.90
20246;DHT22;10281;54.406;18.556;2023-04-25T04:16:01;10.50;99.90
20246;DHT22;10281;54.406;18.556;2023-04-25T04:18:27;10.50;99.90
20246;DHT22;10281;54.406;18.556;2023-04-25T04:20:54;10.50;99.90
20246;DHT22;10281;54.406;18.556;2023-04-25T04:23:21;10.50;99.90
20246;DHT22;10281;54.406;18.556;2023-04-25T04:25:48;10.50;99.90
20246;DHT22;10281;54.406;18.556;2023-04-25T04:28:15;10.40;99.90
20246;DHT22;10281;54.406;18.556;2023-04-25T04:30:42;10.40;99.90
20246;DHT22;10281;54.406;18.556;2023-04-25T04:33:11;10.40;99.90
20246;DHT22;10281;54.406;18.556;2023-04-25T04:35:38;10.40;99.90
20246;DHT22;10281;54.406;18.556;2023-04-25T04:38:04;10.30;99.90
20246;DHT22;10281;54.406;18.556;2023-04-25T04:40:31;10.30;99.90
20246;DHT22;10281;54.406;18.556;2023-04-25T04:42:58;10.20;99.90
20246;DHT22;10281;54.406;18.556;2023-04-25T04:45:24;10.20;99.90
20246;DHT22;10281;54.406;18.556;2023-04-25T04:47:51;10.30;99.90
20246;DHT22;10281;54.406;18.556;2023-04-25T04:50:18;10.30;99.90
20246;DHT22;10281;54.406;18.556;2023-04-25T04:52:45;10.10;99.90
20246;DHT22;10281;54.406;18.556;2023-04-25T04:55:12;10.10;99.90
20246;DHT22;10281;54.406;18.556;2023-04-25T04:57:39;10.10;99.90
20246;DHT22;10281;54.406;18.556;2023-04-25T05:00:06;10.20;99.90
20246;DHT22;10281;54.406;18.556;2023-04-25T05:02:38;10.10;99.90
20246;DHT22;10281;54.406;18.556;2023-04-25T05:05:05;10.20;99.90
20246;DHT22;10281;54.406;18.556;2023-04-25T05:07:32;10.10;99.90
20246;DHT22;10281;54.406;18.556;2023-04-25T05:09:59;10.10;99.90
20246;DHT22;10281;54.406;18.556;2023-04-25T05:12:25;10.10;99.90
20246;DHT22;10281;54.406;18.556;2023-04-25T05:14:52;10.10;99.90
20246;DHT22;10281;54.406;18.556;2023-04-25T05:17:19;10.10;99.90
20246;DHT22;10281;54.406;18.556;2023-04-25T05:19:45;10.10;99.90
20246;DHT22;10281;54.406;18.556;2023-04-25T05:22:12;10.10;99.90
20246;DHT22;10281;54.406;18.556;2023-04-25T05:24:39;10.10;99.90
20246;DHT22;10281;54.406;18.556;2023-04-25T05:27:05;10.10;99.90
20246;DHT22;10281;54.406;18.556;2023-04-25T05:29:32;10.20;99.90
20246;DHT22;10281;54.406;18.556;2023-04-25T05:31:59;10.10;99.90
20246;DHT22;10281;54.406;18.556;2023-04-25T05:34:25;10.20;99.90
20246;DHT22;10281;54.406;18.556;2023-04-25T05:36:52;10.30;99.90
20246;DHT22;10281;54.406;18.556;2023-04-25T05:39:19;10.30;99.90
20246;DHT22;10281;54.406;18.556;2023-04-25T05:41:45;10.30;99.90
20246;DHT22;10281;54.406;18.556;2023-04-25T05:44:12;10.30;99.90
20246;DHT22;10281;54.406;18.556;2023-04-25T05:46:39;10.30;99.90
20246;DHT22;10281;54.406;18.556;2023-04-25T05:49:05;10.40;99.90
20246;DHT22;10281;54.406;18.556;2023-04-25T05:51:32;10.40;99.90
20246;DHT22;10281;54.406;18.556;2023-04-25T05:53:59;10.30;99.90
20246;DHT22;10281;54.406;18.556;2023-04-25T05:56:26;10.30;99.90
20246;DHT22;10281;54.406;18.556;2023-04-25T05:58:52;10.30;99.90
20246;DHT22;10281;54.406;18.556;2023-04-25T06:01:19;10.30;99.90
20246;DHT22;10281;54.406;18.556;2023-04-25T06:03:46;10.40;99.90
20246;DHT22;10281;54.406;18.556;2023-04-25T06:06:13;10.30;99.90
20246;DHT22;10281;54.406;18.556;2023-04-25T06:08:40;10.30;99.90
20246;DHT22;10281;54.406;18.556;2023-04-25T06:11:07;10.40;99.90
20246;DHT22;10281;54.406;18.556;2023-04-25T06:13:34;10.40;99.90
20246;DHT22;10281;54.406;18.556;2023-04-25T06:16:00;10.40;99.90
20246;DHT22;10281;54.406;18.556;2023-04-25T06:18:27;10.40;99.90
20246;DHT22;10281;54.406;18.556;2023-04-25T06:20:54;10.40;99.90
20246;DHT22;10281;54.406;18.556;2023-04-25T06:23:20;10.40;99.90
20246;DHT22;10281;54.406;18.556;2023-04-25T06:25:47;10.40;99.90
20246;DHT22;10281;54.406;18.556;2023-04-25T06:28:13;10.30;99.90
20246;DHT22;10281;54.406;18.556;2023-04-25T06:30:40;10.30;99.90
20246;DHT22;10281;54.406;18.556;2023-04-25T06:33:07;10.20;99.90
20246;DHT22;10281;54.406;18.556;2023-04-25T06:35:34;10.20;99.90
20246;DHT22;10281;54.406;18.556;2023-04-25T06:38:01;10.10;99.90
20246;DHT22;10281;54.406;18.556;2023-04-25T06:40:27;10.10;99.90
20246;DHT22;10281;54.406;18.556;2023-04-25T06:42:54;10.00;99.90
20246;DHT22;10281;54.406;18.556;2023-04-25T06:45:21;10.00;99.90
20246;DHT22;10281;54.406;18.556;2023-04-25T06:47:47;10.00;99.90
20246;DHT22;10281;54.406;18.556;2023-04-25T06:50:14;9.90;99.90
20246;DHT22;10281;54.406;18.556;2023-04-25T06:52:41;9.90;99.90
20246;DHT22;10281;54.406;18.556;2023-04-25T06:55:08;10.00;99.90
20246;DHT22;10281;54.406;18.556;2023-04-25T06:57:35;10.00;99.90
20246;DHT22;10281;54.406;18.556;2023-04-25T07:00:03;10.00;99.90
20246;DHT22;10281;54.406;18.556;2023-04-25T07:02:31;9.90;99.90
20246;DHT22;10281;54.406;18.556;2023-04-25T07:04:58;10.00;99.90
20246;DHT22;10281;54.406;18.556;2023-04-25T07:07:26;10.10;99.90
20246;DHT22;10281;54.406;18.556;2023-04-25T07:09:53;10.10;99.90
20246;DHT22;10281;54.406;18.556;2023-04-25T07:12:20;10.20;99.90
20246;DHT22;10281;54.406;18.556;2023-04-25T07:14:47;10.20;99.90
20246;DHT22;10281;54.406;18.556;2023-04-25T07:17:14;10.20;99.90
20246;DHT22;10281;54.406;18.556;2023-04-25T07:19:41;10.20;99.90
20246;DHT22;10281;54.406;18.556;2023-04-25T07:22:07;10.30;99.90
20246;DHT22;10281;54.406;18.556;2023-04-25T07:24:34;10.40;99.90
20246;DHT22;10281;54.406;18.556;2023-04-25T07:27:01;10.40;99.90
20246;DHT22;10281;54.406;18.556;2023-04-25T07:29:28;10.40;99.90
20246;DHT22;10281;54.406;18.556;2023-04-25T07:31:57;10.30;99.90
20246;DHT22;10281;54.406;18.556;2023-04-25T07:34:24;10.30;99.90
20246;DHT22;10281;54.406;18.556;2023-04-25T07:36:50;10.30;99.90
20246;DHT22;10281;54.406;18.556;2023-04-25T07:39:17;10.40;99.90
20246;DHT22;10281;54.406;18.556;2023-04-25T07:41:43;10.50;99.90
20246;DHT22;10281;54.406;18.556;2023-04-25T07:44:10;10.50;99.90
20246;DHT22;10281;54.406;18.556;2023-04-25T07:46:37;10.60;99.90
20246;DHT22;10281;54.406;18.556;2023-04-25T07:49:03;10.60;99.90
20246;DHT22;10281;54.406;18.556;2023-04-25T07:51:30;10.60;99.90
20246;DHT22;10281;54.406;18.556;2023-04-25T07:53:57;10.70;99.90
20246;DHT22;10281;54.406;18.556;2023-04-25T07:56:25;10.70;99.90
20246;DHT22;10281;54.406;18.556;2023-04-25T07:58:52;10.70;99.90
20246;DHT22;10281;54.406;18.556;2023-04-25T08:01:18;10.70;99.90
20246;DHT22;10281;54.406;18.556;2023-04-25T08:03:47;10.80;99.90
20246;DHT22;10281;54.406;18.556;2023-04-25T08:06:13;10.80;99.90
20246;DHT22;10281;54.406;18.556;2023-04-25T08:08:40;10.90;99.90
20246;DHT22;10281;54.406;18.556;2023-04-25T08:11:07;10.90;99.90
20246;DHT22;10281;54.406;18.556;2023-04-25T08:13:33;10.80;99.90
20246;DHT22;10281;54.406;18.556;2023-04-25T08:16:00;10.90;99.90
20246;DHT22;10281;54.406;18.556;2023-04-25T08:18:27;10.90;99.90
20246;DHT22;10281;54.406;18.556;2023-04-25T08:20:53;10.90;99.90
20246;DHT22;10281;54.406;18.556;2023-04-25T08:23:20;11.00;99.90
20246;DHT22;10281;54.406;18.556;2023-04-25T08:25:47;11.10;99.90
20246;DHT22;10281;54.406;18.556;2023-04-25T08:28:14;11.10;99.90
20246;DHT22;10281;54.406;18.556;2023-04-25T08:30:41;11.10;99.90
20246;DHT22;10281;54.406;18.556;2023-04-25T08:33:07;11.20;99.90
20246;DHT22;10281;54.406;18.556;2023-04-25T08:35:34;11.20;99.90
20246;DHT22;10281;54.406;18.556;2023-04-25T08:38:01;11.30;99.90
20246;DHT22;10281;54.406;18.556;2023-04-25T08:40:28;11.40;99.90
20246;DHT22;10281;54.406;18.556;2023-04-25T08:42:57;11.40;99.90
20246;DHT22;10281;54.406;18.556;2023-04-25T08:45:27;11.40;99.90
20246;DHT22;10281;54.406;18.556;2023-04-25T08:47:54;11.40;99.90
20246;DHT22;10281;54.406;18.556;2023-04-25T08:50:23;11.50;99.90
20246;DHT22;10281;54.406;18.556;2023-04-25T08:52:53;11.50;99.90
20246;DHT22;10281;54.406;18.556;2023-04-25T08:55:21;11.40;99.90
20246;DHT22;10281;54.406;18.556;2023-04-25T08:57:49;11.40;99.90
20246;DHT22;10281;54.406;18.556;2023-04-25T09:00:17;11.40;99.90
20246;DHT22;10281;54.406;18.556;2023-04-25T09:02:45;11.50;99.90
20246;DHT22;10281;54.406;18.556;2023-04-25T09:05:13;11.70;99.90
20246;DHT22;10281;54.406;18.556;2023-04-25T09:07:40;11.80;99.90
20246;DHT22;10281;54.406;18.556;2023-04-25T09:10:07;11.90;99.90
20246;DHT22;10281;54.406;18.556;2023-04-25T09:12:35;11.90;99.90
20246;DHT22;10281;54.406;18.556;2023-04-25T09:15:06;12.00;99.90
20246;DHT22;10281;54.406;18.556;2023-04-25T09:17:33;12.00;99.90
20246;DHT22;10281;54.406;18.556;2023-04-25T09:20:06;11.90;99.90
20246;DHT22;10281;54.406;18.556;2023-04-25T09:22:34;11.90;99.90
20246;DHT22;10281;54.406;18.556;2023-04-25T09:25:07;11.90;99.90
20246;DHT22;10281;54.406;18.556;2023-04-25T09:27:32;12.00;99.90
20246;DHT22;10281;54.406;18.556;2023-04-25T09:29:59;11.90;99.90
20246;DHT22;10281;54.406;18.556;2023-04-25T09:32:27;12.00;99.90
20246;DHT22;10281;54.406;18.556;2023-04-25T09:34:55;12.00;99.90
20246;DHT22;10281;54.406;18.556;2023-04-25T09:37:26;12.10;99.90
20246;DHT22;10281;54.406;18.556;2023-04-25T09:39:56;12.20;99.90
20246;DHT22;10281;54.406;18.556;2023-04-25T09:42:25;12.20;99.90
20246;DHT22;10281;54.406;18.556;2023-04-25T09:44:54;12.30;99.90
20246;DHT22;10281;54.406;18.556;2023-04-25T09:47:24;12.40;99.90
20246;DHT22;10281;54.406;18.556;2023-04-25T09:49:51;12.40;99.90
20246;DHT22;10281;54.406;18.556;2023-04-25T09:52:20;12.30;99.90
20246;DHT22;10281;54.406;18.556;2023-04-25T09:54:48;12.30;99.90
20246;DHT22;10281;54.406;18.556;2023-04-25T09:57:19;12.40;99.90
20246;DHT22;10281;54.406;18.556;2023-04-25T09:59:50;12.40;99.90
20246;DHT22;10281;54.406;18.556;2023-04-25T10:02:19;12.40;99.90
20246;DHT22;10281;54.406;18.556;2023-04-25T10:04:50;12.50;99.90
20246;DHT22;10281;54.406;18.556;2023-04-25T10:07:20;12.60;99.90
20246;DHT22;10281;54.406;18.556;2023-04-25T10:09:49;12.60;99.90
20246;DHT22;10281;54.406;18.556;2023-04-25T10:12:16;12.70;99.90
20246;DHT22;10281;54.406;18.556;2023-04-25T10:14:44;12.70;99.90
20246;DHT22;10281;54.406;18.556;2023-04-25T10:17:12;12.80;99.90
20246;DHT22;10281;54.406;18.556;2023-04-25T10:19:40;12.90;99.90
20246;DHT22;10281;54.406;18.556;2023-04-25T10:22:11;12.90;99.90
20246;DHT22;10281;54.406;18.556;2023-04-25T10:24:39;12.80;99.90
20246;DHT22;10281;54.406;18.556;2023-04-25T10:27:07;12.80;99.90
20246;DHT22;10281;54.406;18.556;2023-04-25T10:29:35;12.70;99.90
20246;DHT22;10281;54.406;18.556;2023-04-25T10:32:02;12.60;99.90
20246;DHT22;10281;54.406;18.556;2023-04-25T10:34:42;12.50;99.90
20246;DHT22;10281;54.406;18.556;2023-04-25T10:37:10;12.30;99.90
20246;DHT22;10281;54.406;18.556;2023-04-25T10:39:39;12.20;99.90
20246;DHT22;10281;54.406;18.556;2023-04-25T10:42:07;12.10;99.90
20246;DHT22;10281;54.406;18.556;2023-04-25T10:44:34;12.00;99.90
20246;DHT22;10281;54.406;18.556;2023-04-25T10:47:03;11.90;99.90
20246;DHT22;10281;54.406;18.556;2023-04-25T10:49:34;11.70;99.90
20246;DHT22;10281;54.406;18.556;2023-04-25T10:52:13;11.70;99.90
20246;DHT22;10281;54.406;18.556;2023-04-25T10:54:42;11.80;99.90
20246;DHT22;10281;54.406;18.556;2023-04-25T10:59:44;11.90;99.90
20246;DHT22;10281;54.406;18.556;2023-04-25T11:02:12;11.90;99.90
20246;DHT22;10281;54.406;18.556;2023-04-25T11:04:40;12.00;99.90
20246;DHT22;10281;54.406;18.556;2023-04-25T11:07:17;12.10;99.90
20246;DHT22;10281;54.406;18.556;2023-04-25T11:09:44;12.30;99.90
20246;DHT22;10281;54.406;18.556;2023-04-25T11:12:11;12.40;99.90
20246;DHT22;10281;54.406;18.556;2023-04-25T11:14:39;12.50;99.90
20246;DHT22;10281;54.406;18.556;2023-04-25T11:17:06;12.60;99.90
20246;DHT22;10281;54.406;18.556;2023-04-25T11:19:33;12.60;99.90
20246;DHT22;10281;54.406;18.556;2023-04-25T11:22:00;12.70;99.90
20246;DHT22;10281;54.406;18.556;2023-04-25T11:24:30;12.80;99.90
20246;DHT22;10281;54.406;18.556;2023-04-25T11:26:58;12.80;99.90
20246;DHT22;10281;54.406;18.556;2023-04-25T11:29:28;12.80;99.90
20246;DHT22;10281;54.406;18.556;2023-04-25T11:31:55;12.90;99.90
20246;DHT22;10281;54.406;18.556;2023-04-25T11:34:25;12.90;99.90
20246;DHT22;10281;54.406;18.556;2023-04-25T11:36:52;12.90;99.90
20246;DHT22;10281;54.406;18.556;2023-04-25T11:39:19;12.80;99.90
20246;DHT22;10281;54.406;18.556;2023-04-25T11:41:46;12.80;99.90
20246;DHT22;10281;54.406;18.556;2023-04-25T11:44:15;12.70;99.90
20246;DHT22;10281;54.406;18.556;2023-04-25T11:46:43;12.50;99.90
20246;DHT22;10281;54.406;18.556;2023-04-25T11:49:10;12.50;99.90
20246;DHT22;10281;54.406;18.556;2023-04-25T11:51:43;12.50;99.90
20246;DHT22;10281;54.406;18.556;2023-04-25T11:54:10;12.40;99.90
20246;DHT22;10281;54.406;18.556;2023-04-25T11:56:41;12.30;99.90
20246;DHT22;10281;54.406;18.556;2023-04-25T11:59:08;12.10;99.90
20246;DHT22;10281;54.406;18.556;2023-04-25T12:01:37;12.00;99.90
20246;DHT22;10281;54.406;18.556;2023-04-25T12:04:12;11.90;99.90
20246;DHT22;10281;54.406;18.556;2023-04-25T12:06:40;11.90;99.90
20246;DHT22;10281;54.406;18.556;2023-04-25T12:09:09;11.90;99.90
20246;DHT22;10281;54.406;18.556;2023-04-25T12:11:43;11.90;99.90
20246;DHT22;10281;54.406;18.556;2023-04-25T12:14:11;11.80;99.90
20246;DHT22;10281;54.406;18.556;2023-04-25T12:16:44;11.90;99.90
20246;DHT22;10281;54.406;18.556;2023-04-25T12:19:19;11.80;99.90
20246;DHT22;10281;54.406;18.556;2023-04-25T12:21:46;11.90;99.90
20246;DHT22;10281;54.406;18.556;2023-04-25T12:24:16;11.90;99.90
20246;DHT22;10281;54.406;18.556;2023-04-25T12:27:00;11.90;99.90
20246;DHT22;10281;54.406;18.556;2023-04-25T12:29:29;11.90;99.90
20246;DHT22;10281;54.406;18.556;2023-04-25T12:31:56;11.90;99.90
20246;DHT22;10281;54.406;18.556;2023-04-25T12:34:23;11.90;99.90
20246;DHT22;10281;54.406;18.556;2023-04-25T12:36:51;11.90;99.90
20246;DHT22;10281;54.406;18.556;2023-04-25T12:39:19;11.90;99.90
20246;DHT22;10281;54.406;18.556;2023-04-25T12:41:49;11.90;99.90
20246;DHT22;10281;54.406;18.556;2023-04-25T12:44:16;11.90;99.90
20246;DHT22;10281;54.406;18.556;2023-04-25T12:46:43;12.00;99.90
20246;DHT22;10281;54.406;18.556;2023-04-25T12:49:09;12.00;99.90
20246;DHT22;10281;54.406;18.556;2023-04-25T12:51:36;12.00;99.90
20246;DHT22;10281;54.406;18.556;2023-04-25T12:54:04;12.00;99.90
20246;DHT22;10281;54.406;18.556;2023-04-25T12:56:31;12.10;99.90
20246;DHT22;10281;54.406;18.556;2023-04-25T12:58:59;12.10;99.90
20246;DHT22;10281;54.406;18.556;2023-04-25T13:01:26;12.00;99.90
20246;DHT22;10281;54.406;18.556;2023-04-25T13:03:53;12.10;99.90
20246;DHT22;10281;54.406;18.556;2023-04-25T13:06:20;12.00;99.90
20246;DHT22;10281;54.406;18.556;2023-04-25T13:08:47;12.10;99.90
20246;DHT22;10281;54.406;18.556;2023-04-25T13:11:14;12.10;99.90
20246;DHT22;10281;54.406;18.556;2023-04-25T13:13:41;12.10;99.90
20246;DHT22;10281;54.406;18.556;2023-04-25T13:16:08;12.10;99.90
20246;DHT22;10281;54.406;18.556;2023-04-25T13:18:35;12.20;99.90
20246;DHT22;10281;54.406;18.556;2023-04-25T13:21:02;12.10;99.90
20246;DHT22;10281;54.406;18.556;2023-04-25T13:23:29;12.10;99.90
20246;DHT22;10281;54.406;18.556;2023-04-25T13:25:57;12.20;99.90
20246;DHT22;10281;54.406;18.556;2023-04-25T13:28:25;12.30;99.90
20246;DHT22;10281;54.406;18.556;2023-04-25T13:30:52;12.40;99.90
20246;DHT22;10281;54.406;18.556;2023-04-25T13:33:19;12.60;99.90
20246;DHT22;10281;54.406;18.556;2023-04-25T13:35:48;12.60;99.90
20246;DHT22;10281;54.406;18.556;2023-04-25T13:38:21;12.60;99.90
20246;DHT22;10281;54.406;18.556;2023-04-25T13:40:49;12.70;99.90
20246;DHT22;10281;54.406;18.556;2023-04-25T13:43:20;12.70;99.90
20246;DHT22;10281;54.406;18.556;2023-04-25T13:45:48;12.70;99.90
20246;DHT22;10281;54.406;18.556;2023-04-25T13:48:15;12.70;99.90
20246;DHT22;10281;54.406;18.556;2023-04-25T13:50:42;12.70;99.90
20246;DHT22;10281;54.406;18.556;2023-04-25T13:53:09;12.40;99.90
20246;DHT22;10281;54.406;18.556;2023-04-25T13:55:36;12.20;99.90
20246;DHT22;10281;54.406;18.556;2023-04-25T13:58:04;12.20;99.90
20246;DHT22;10281;54.406;18.556;2023-04-25T14:00:35;12.30;99.90
20246;DHT22;10281;54.406;18.556;2023-04-25T14:03:04;12.40;99.90
20246;DHT22;10281;54.406;18.556;2023-04-25T14:05:34;12.50;99.90
20246;DHT22;10281;54.406;18.556;2023-04-25T14:08:03;12.40;99.90
20246;DHT22;10281;54.406;18.556;2023-04-25T14:10:30;12.40;99.90
20246;DHT22;10281;54.406;18.556;2023-04-25T14:12:56;12.50;99.90
20246;DHT22;10281;54.406;18.556;2023-04-25T14:15:24;12.50;99.90
20246;DHT22;10281;54.406;18.556;2023-04-25T14:17:51;12.50;99.90
20246;DHT22;10281;54.406;18.556;2023-04-25T14:20:18;12.50;99.90
20246;DHT22;10281;54.406;18.556;2023-04-25T14:22:46;12.50;99.90
20246;DHT22;10281;54.406;18.556;2023-04-25T14:25:13;12.40;99.90
20246;DHT22;10281;54.406;18.556;2023-04-25T14:27:40;12.20;99.90
20246;DHT22;10281;54.406;18.556;2023-04-25T14:30:07;11.90;99.90
20246;DHT22;10281;54.406;18.556;2023-04-25T14:32:35;11.60;99.90
20246;DHT22;10281;54.406;18.556;2023-04-25T14:35:02;11.40;99.90
20246;DHT22;10281;54.406;18.556;2023-04-25T14:37:28;11.30;99.90
20246;DHT22;10281;54.406;18.556;2023-04-25T14:39:55;11.10;99.90
20246;DHT22;10281;54.406;18.556;2023-04-25T14:42:22;11.00;99.90
20246;DHT22;10281;54.406;18.556;2023-04-25T14:44:48;10.80;99.90
20246;DHT22;10281;54.406;18.556;2023-04-25T14:47:15;10.70;99.90
20246;DHT22;10281;54.406;18.556;2023-04-25T14:49:42;10.70;99.90
20246;DHT22;10281;54.406;18.556;2023-04-25T14:52:12;10.70;99.90
20246;DHT22;10281;54.406;18.556;2023-04-25T14:54:38;10.50;99.90
20246;DHT22;10281;54.406;18.556;2023-04-25T14:57:05;10.50;99.90
20246;DHT22;10281;54.406;18.556;2023-04-25T14:59:33;10.40;99.90
20246;DHT22;10281;54.406;18.556;2023-04-25T15:02:00;10.50;99.90
20246;DHT22;10281;54.406;18.556;2023-04-25T15:04:26;10.40;99.90
20246;DHT22;10281;54.406;18.556;2023-04-25T15:06:53;10.30;99.90
20246;DHT22;10281;54.406;18.556;2023-04-25T15:09:20;10.30;99.90
20246;DHT22;10281;54.406;18.556;2023-04-25T15:11:46;10.20;99.90
20246;DHT22;10281;54.406;18.556;2023-04-25T15:14:13;10.30;99.90
20246;DHT22;10281;54.406;18.556;2023-04-25T15:16:40;10.30;99.90
20246;DHT22;10281;54.406;18.556;2023-04-25T15:19:06;10.30;99.90